createdAt,value
2022-08-16T00:00:46.760Z,6.13
2022-08-16T00:03:14.941Z,5.53
2022-08-16T00:05:48.291Z,5.95
2022-08-16T00:08:36.707Z,6.00
2022-08-16T00:11:15.740Z,6.32
2022-08-16T00:13:53.960Z,6.30
2022-08-16T00:17:05.947Z,6.63
2022-08-16T00:19:22.462Z,6.32
2022-08-16T00:21:54.527Z,6.70
2022-08-16T00:24:31.416Z,6.05
2022-08-16T00:27:05.046Z,6.30
2022-08-16T00:29:32.934Z,6.65
2022-08-16T00:32:06.336Z,6.90
2022-08-16T00:34:43.293Z,6.57
2022-08-16T00:37:21.259Z,6.72
2022-08-16T00:39:57.201Z,6.63
2022-08-16T00:42:30.605Z,6.15
2022-08-16T00:45:20.528Z,7.15
2022-08-16T00:47:54.748Z,6.22
2022-08-16T00:50:36.586Z,6.70
2022-08-16T00:53:10.851Z,7.32
2022-08-16T00:56:05.653Z,6.57
2022-08-16T00:58:37.370Z,6.93
2022-08-16T01:01:08.201Z,6.35
2022-08-16T01:03:41.737Z,6.57
2022-08-16T01:06:40.144Z,7.32
2022-08-16T01:09:01.696Z,7.10
2022-08-16T01:11:32.329Z,6.78
2022-08-16T01:14:20.125Z,7.25
2022-08-16T01:16:49.597Z,6.88
2022-08-16T01:19:41.705Z,7.20
2022-08-16T01:22:48.527Z,6.38
2022-08-16T01:25:37.062Z,7.60
2022-08-16T01:28:11.312Z,7.10
2022-08-16T01:30:56.483Z,7.75
2022-08-16T01:33:24.137Z,7.13
2022-08-16T01:36:09.363Z,7.78
2022-08-16T01:38:51.261Z,6.95
2022-08-16T01:41:30.736Z,7.25
2022-08-16T01:44:01.036Z,8.02
2022-08-16T01:46:39.567Z,7.88
2022-08-16T01:49:25.443Z,8.13
2022-08-16T01:52:29.619Z,8.18
2022-08-16T01:54:58.487Z,8.07
2022-08-16T01:57:28.323Z,8.80
2022-08-16T01:59:59.794Z,8.38
2022-08-16T02:02:28.454Z,8.23
2022-08-16T02:05:00.100Z,7.28
2022-08-16T02:07:30.558Z,8.15
2022-08-16T02:09:59.639Z,8.68
2022-08-16T02:12:49.708Z,7.43
2022-08-16T02:15:25.495Z,8.68
2022-08-16T02:17:58.426Z,8.30
2022-08-16T02:20:29.201Z,8.25
2022-08-16T02:22:59.658Z,8.02
2022-08-16T02:25:50.871Z,8.30
2022-08-16T02:28:19.154Z,8.23
2022-08-16T02:30:50.887Z,8.20
2022-08-16T02:33:24.501Z,8.27
2022-08-16T02:35:55.081Z,8.85
2022-08-16T02:38:27.790Z,8.57
2022-08-16T02:40:57.041Z,9.15
2022-08-16T02:43:33.037Z,9.02
2022-08-16T02:46:01.879Z,8.18
2022-08-16T02:48:38.430Z,8.70
2022-08-16T02:51:10.770Z,9.43
2022-08-16T02:53:44.822Z,9.95
2022-08-16T02:56:18.665Z,8.90
2022-08-16T02:58:49.328Z,8.65
2022-08-16T03:01:33.710Z,9.00
2022-08-16T03:04:29.170Z,9.43
2022-08-16T03:06:56.747Z,8.93
2022-08-16T03:09:25.675Z,9.90
2022-08-16T03:11:57.030Z,8.48
2022-08-16T03:14:24.977Z,9.32
2022-08-16T03:17:00.161Z,9.05
2022-08-16T03:19:48.087Z,8.80
2022-08-16T03:22:28.319Z,8.93
2022-08-16T03:25:02.467Z,8.45
2022-08-16T03:27:32.269Z,9.70
2022-08-16T03:30:17.649Z,9.25
2022-08-16T03:32:51.474Z,9.82
2022-08-16T03:35:32.852Z,8.98
2022-08-16T03:38:04.387Z,9.38
2022-08-16T03:40:51.790Z,8.50
2022-08-16T03:43:21.475Z,9.27
2022-08-16T03:45:52.458Z,9.40
2022-08-16T03:48:36.775Z,8.77
2022-08-16T03:51:12.336Z,9.30
2022-08-16T03:53:40.780Z,9.02
2022-08-16T03:56:19.525Z,8.15
2022-08-16T03:58:48.538Z,8.57
2022-08-16T04:01:19.745Z,8.48
2022-08-16T04:03:46.804Z,8.57
2022-08-16T04:06:17.196Z,8.77
2022-08-16T04:08:45.243Z,9.10
2022-08-16T04:11:12.373Z,8.23
2022-08-16T04:14:01.554Z,8.82
2022-08-16T04:16:33.864Z,7.97
2022-08-16T04:19:04.363Z,8.57
2022-08-16T04:21:35.636Z,8.88
2022-08-16T04:24:07.987Z,8.20
2022-08-16T04:26:36.224Z,9.90
2022-08-16T04:29:15.215Z,8.88
2022-08-16T04:31:56.809Z,8.25
2022-08-16T04:34:30.280Z,8.90
2022-08-16T04:37:01.460Z,9.20
2022-08-16T04:39:45.927Z,8.38
2022-08-16T04:42:17.396Z,8.70
2022-08-16T04:44:53.633Z,8.63
2022-08-16T04:47:32.871Z,8.55
2022-08-16T04:50:14.509Z,8.38
2022-08-16T04:52:44.238Z,8.80
2022-08-16T04:55:20.484Z,8.50
2022-08-16T04:58:00.000Z,8.60
2022-08-16T05:00:33.960Z,7.75
2022-08-16T05:03:09.986Z,9.05
2022-08-16T05:05:45.402Z,8.20
2022-08-16T05:08:30.851Z,8.02
2022-08-16T05:11:03.349Z,8.48
2022-08-16T05:13:41.157Z,8.13
2022-08-16T05:16:19.927Z,8.48
2022-08-16T05:18:52.138Z,8.50
2022-08-16T05:21:22.172Z,8.60
2022-08-16T05:23:55.998Z,9.02
2022-08-16T05:26:31.173Z,7.90
2022-08-16T05:29:03.688Z,8.57
2022-08-16T05:31:32.895Z,9.27
2022-08-16T05:34:04.424Z,8.18
2022-08-16T05:36:36.495Z,8.68
2022-08-16T05:39:09.578Z,9.02
2022-08-16T05:41:45.173Z,7.97
2022-08-16T05:44:23.298Z,8.20
2022-08-16T05:47:00.378Z,8.13
2022-08-16T05:49:39.346Z,8.95
2022-08-16T05:52:17.173Z,9.05
2022-08-16T05:54:47.427Z,8.35
2022-08-16T05:57:20.680Z,8.00
2022-08-16T05:59:50.703Z,8.68
2022-08-16T06:02:30.733Z,8.60
2022-08-16T06:05:02.118Z,9.15
2022-08-16T06:07:29.629Z,8.70
2022-08-16T06:10:00.392Z,8.35
2022-08-16T06:12:30.097Z,9.05
2022-08-16T06:15:01.884Z,8.07
2022-08-16T06:17:42.833Z,9.30
2022-08-16T06:20:24.254Z,8.15
2022-08-16T06:23:03.686Z,8.05
2022-08-16T06:25:39.562Z,8.85
2022-08-16T06:28:17.075Z,8.63
2022-08-16T06:30:59.801Z,8.10
2022-08-16T06:33:29.368Z,8.27
2022-08-16T06:36:09.926Z,12.88
2022-08-16T06:38:39.066Z,9.40
2022-08-16T06:41:24.360Z,8.43
2022-08-16T06:43:55.315Z,8.15
2022-08-16T06:46:39.213Z,8.73
2022-08-16T06:49:10.991Z,12.00
2022-08-16T06:51:46.263Z,9.13
2022-08-16T06:54:16.099Z,7.70
2022-08-16T06:56:43.524Z,8.25
2022-08-16T06:59:11.170Z,7.60
2022-08-16T07:01:43.353Z,7.88
2022-08-16T07:04:14.014Z,7.55
2022-08-16T07:07:02.901Z,7.13
2022-08-16T07:09:30.616Z,7.07
2022-08-16T07:12:03.186Z,7.38
2022-08-16T07:14:32.197Z,7.63
2022-08-16T07:16:59.886Z,7.60
2022-08-16T07:19:48.330Z,8.10
2022-08-16T07:22:36.601Z,10.32
2022-08-16T07:25:13.671Z,8.50
2022-08-16T07:27:42.101Z,7.95
2022-08-16T07:30:39.127Z,7.78
2022-08-16T07:33:01.151Z,8.60
2022-08-16T07:35:28.467Z,9.40
2022-08-16T07:37:55.723Z,7.82
2022-08-16T07:40:49.193Z,9.15
2022-08-16T07:43:10.458Z,7.97
2022-08-16T07:45:38.938Z,10.57
2022-08-16T07:48:11.627Z,10.23
2022-08-16T07:50:55.502Z,8.27
2022-08-16T07:53:31.974Z,9.18
2022-08-16T07:56:00.675Z,8.57
2022-08-16T07:58:33.861Z,8.20
2022-08-16T08:01:10.847Z,7.50
2022-08-16T08:03:48.183Z,7.70
2022-08-16T08:06:24.884Z,8.35
2022-08-16T08:09:00.267Z,8.02
2022-08-16T08:11:33.614Z,8.30
2022-08-16T08:14:03.572Z,8.65
2022-08-16T08:16:33.231Z,11.38
2022-08-16T08:19:02.916Z,8.93
2022-08-16T08:21:59.667Z,9.18
2022-08-16T08:24:22.397Z,9.55
2022-08-16T08:27:02.085Z,10.35
2022-08-16T08:29:37.534Z,9.98
2022-08-16T08:32:59.915Z,10.75
2022-08-16T08:35:03.348Z,11.45
2022-08-16T08:37:55.050Z,12.15
2022-08-16T08:40:26.688Z,10.40
2022-08-16T08:43:11.999Z,10.60
2022-08-16T08:45:48.428Z,9.48
2022-08-16T08:48:33.431Z,14.52
2022-08-16T08:51:05.557Z,16.65
2022-08-16T08:53:37.810Z,13.50
2022-08-16T08:56:22.877Z,12.05
2022-08-16T08:59:00.991Z,12.00
2022-08-16T09:01:36.745Z,11.10
2022-08-16T09:04:14.661Z,11.20
2022-08-16T09:06:44.563Z,11.35
2022-08-16T09:09:17.023Z,11.52
2022-08-16T09:11:52.380Z,11.57
2022-08-16T09:14:24.027Z,11.15
2022-08-16T09:17:11.990Z,10.25
2022-08-16T09:19:52.691Z,12.70
2022-08-16T09:22:28.508Z,10.90
2022-08-16T09:25:09.738Z,11.80
2022-08-16T09:27:57.003Z,11.60
2022-08-16T09:30:34.197Z,11.85
2022-08-16T09:33:07.625Z,13.18
2022-08-16T09:35:37.228Z,12.38
2022-08-16T09:38:08.632Z,12.45
2022-08-16T09:40:42.556Z,13.38
2022-08-16T09:43:53.270Z,12.40
2022-08-16T09:46:48.102Z,12.95
2022-08-16T09:48:55.911Z,12.25
2022-08-16T09:51:30.650Z,11.48
2022-08-16T09:54:05.579Z,13.43
2022-08-16T09:56:35.404Z,12.88
2022-08-16T09:59:08.245Z,13.75
2022-08-16T10:01:43.653Z,14.50
2022-08-16T10:04:30.497Z,14.02
2022-08-16T10:07:15.429Z,13.13
2022-08-16T10:09:54.803Z,15.38
2022-08-16T10:12:55.709Z,13.82
2022-08-16T10:15:25.996Z,15.68
2022-08-16T10:18:01.594Z,13.57
2022-08-16T10:20:34.835Z,12.05
2022-08-16T10:23:06.948Z,13.63
2022-08-16T10:27:18.137Z,14.63
2022-08-16T10:28:32.612Z,13.95
2022-08-16T10:31:11.946Z,13.80
2022-08-16T10:33:44.783Z,12.90
2022-08-16T10:36:38.916Z,12.85
2022-08-16T10:39:02.467Z,13.32
2022-08-16T10:41:32.843Z,13.32
2022-08-16T10:44:09.585Z,12.10
2022-08-16T10:46:41.716Z,14.25
2022-08-16T10:49:16.878Z,12.15
2022-08-16T10:52:01.244Z,12.65
2022-08-16T10:54:32.093Z,14.23
2022-08-16T10:57:03.893Z,11.90
2022-08-16T10:59:46.924Z,11.48
2022-08-16T11:02:58.100Z,12.45
2022-08-16T11:05:16.820Z,11.98
2022-08-16T11:07:52.227Z,12.57
2022-08-16T11:17:02.727Z,10.45
2022-08-16T11:19:06.515Z,12.07
2022-08-16T11:24:42.937Z,10.40
2022-08-16T11:27:20.146Z,10.45
2022-08-16T11:29:53.524Z,9.20
2022-08-16T11:32:31.379Z,9.45
2022-08-16T11:35:10.658Z,9.82
2022-08-16T11:40:44.436Z,8.75
2022-08-16T11:43:16.843Z,7.95
2022-08-16T11:45:54.245Z,6.85
2022-08-16T11:48:28.483Z,7.20
2022-08-16T11:50:56.622Z,6.45
2022-08-16T11:53:24.669Z,8.75
2022-08-16T11:55:54.640Z,6.85
2022-08-16T11:58:26.162Z,6.45
2022-08-16T12:00:57.693Z,7.03
2022-08-16T12:03:34.561Z,5.63
2022-08-16T12:06:25.257Z,7.72
2022-08-16T12:09:00.954Z,5.40
2022-08-16T12:11:31.296Z,5.22
2022-08-16T12:14:04.312Z,8.20
2022-08-16T12:16:34.449Z,8.45
2022-08-16T12:19:10.441Z,5.32
2022-08-16T12:21:58.212Z,5.60
2022-08-16T12:24:27.968Z,5.43
2022-08-16T12:26:56.437Z,5.15
2022-08-16T12:29:25.891Z,4.72
2022-08-16T12:32:01.398Z,5.45
2022-08-16T12:34:48.030Z,5.30
2022-08-16T12:37:20.480Z,5.40
2022-08-16T12:39:51.094Z,5.10
2022-08-16T12:42:20.532Z,4.97
2022-08-16T12:44:50.393Z,5.60
2022-08-16T12:47:37.819Z,5.28
2022-08-16T12:50:10.466Z,5.40
2022-08-16T12:52:44.417Z,5.65
2022-08-16T12:55:23.760Z,5.20
2022-08-16T12:57:57.873Z,4.72
2022-08-16T13:00:33.123Z,4.88
2022-08-16T13:03:03.861Z,5.57
2022-08-16T13:05:45.063Z,4.95
2022-08-16T13:08:21.192Z,4.90
2022-08-16T13:10:50.683Z,5.10
2022-08-16T13:13:24.947Z,4.82
2022-08-16T13:16:02.243Z,5.05
2022-08-16T13:18:35.568Z,5.45
2022-08-16T13:21:08.246Z,5.03
2022-08-16T13:23:43.337Z,6.00
2022-08-16T13:26:12.815Z,5.07
2022-08-16T13:28:47.670Z,4.68
2022-08-16T13:31:16.944Z,4.43
2022-08-16T13:33:45.422Z,5.03
2022-08-16T13:39:01.446Z,4.68
2022-08-16T13:41:30.209Z,5.20
2022-08-16T13:44:00.463Z,5.30
2022-08-16T13:46:30.008Z,5.75
2022-08-16T13:48:58.025Z,5.30
2022-08-16T13:51:29.274Z,5.40
2022-08-16T13:54:03.877Z,5.35
2022-08-16T13:56:38.814Z,6.07
2022-08-16T13:59:19.311Z,6.18
2022-08-16T14:01:55.198Z,6.07
2022-08-16T14:04:34.143Z,6.13
2022-08-16T14:07:05.105Z,7.07
2022-08-16T14:09:36.283Z,7.10
2022-08-16T14:12:18.012Z,5.97
2022-08-16T14:14:46.809Z,5.50
2022-08-16T14:17:14.402Z,6.78
2022-08-16T14:19:44.798Z,5.40
2022-08-16T14:22:30.760Z,5.75
2022-08-16T14:25:00.008Z,6.18
2022-08-16T14:27:30.543Z,5.80
2022-08-16T14:29:59.852Z,5.82
2022-08-16T14:32:34.488Z,5.95
2022-08-16T14:35:15.266Z,6.75
2022-08-16T14:37:43.395Z,6.05
2022-08-16T14:40:16.070Z,6.18
2022-08-16T14:42:46.773Z,6.00
2022-08-16T14:45:20.584Z,6.00
2022-08-16T14:47:49.852Z,6.05
2022-08-16T14:50:24.450Z,6.40
2022-08-16T14:53:04.402Z,6.15
2022-08-16T14:55:35.458Z,5.57
2022-08-16T14:58:05.207Z,5.25
2022-08-16T15:00:34.659Z,5.30
2022-08-16T15:03:09.811Z,5.20
2022-08-16T15:05:39.716Z,5.47
2022-08-16T15:08:07.585Z,5.93
2022-08-16T15:10:37.373Z,5.00
2022-08-16T15:13:09.568Z,5.07
2022-08-16T15:15:38.735Z,5.43
2022-08-16T15:18:12.084Z,6.05
2022-08-16T15:20:41.434Z,5.65
2022-08-16T15:23:10.773Z,5.25
2022-08-16T15:25:58.633Z,5.72
2022-08-16T15:28:33.045Z,5.40
2022-08-16T15:31:03.930Z,5.65
2022-08-16T15:33:35.139Z,5.35
2022-08-16T15:36:04.583Z,5.43
2022-08-16T15:38:57.261Z,5.20
2022-08-16T15:41:53.873Z,5.68
2022-08-16T15:44:25.314Z,6.57
2022-08-16T15:47:02.501Z,5.82
2022-08-16T15:49:38.095Z,5.28
2022-08-16T15:52:30.225Z,4.85
2022-08-16T15:55:07.430Z,6.03
2022-08-16T15:57:41.575Z,5.53
2022-08-16T16:00:15.025Z,6.20
2022-08-16T16:03:25.517Z,5.57
2022-08-16T16:05:59.462Z,6.47
2022-08-16T16:08:28.907Z,6.00
2022-08-16T16:11:03.467Z,6.65
2022-08-16T16:13:34.040Z,6.35
2022-08-16T16:16:04.280Z,6.80
2022-08-16T16:18:40.433Z,6.03
2022-08-16T16:21:20.331Z,5.85
2022-08-16T16:23:55.002Z,6.05
2022-08-16T16:26:26.868Z,5.82
2022-08-16T16:29:08.167Z,6.15
2022-08-16T16:31:43.974Z,7.65
2022-08-16T16:34:26.374Z,10.27
2022-08-16T16:36:59.881Z,10.20
2022-08-16T16:39:26.995Z,9.88
2022-08-16T16:41:59.994Z,9.35
2022-08-16T16:44:33.739Z,10.02
2022-08-16T16:47:03.838Z,8.70
2022-08-16T16:49:32.908Z,8.68
2022-08-16T16:52:06.709Z,10.07
2022-08-16T16:54:35.647Z,8.73
2022-08-16T16:57:03.046Z,9.10
2022-08-16T16:59:30.497Z,8.13
2022-08-16T17:02:38.635Z,7.13
2022-08-16T17:04:48.658Z,5.32
2022-08-16T17:07:16.734Z,4.50
2022-08-16T17:09:46.835Z,5.10
2022-08-16T17:12:23.614Z,3.78
2022-08-16T17:15:02.293Z,4.63
2022-08-16T17:17:29.694Z,4.95
2022-08-16T17:19:56.902Z,4.43
2022-08-16T17:22:32.708Z,4.25
2022-08-16T17:25:01.234Z,4.53
2022-08-16T17:27:33.141Z,5.10
2022-08-16T17:30:18.787Z,5.38
2022-08-16T17:32:54.604Z,4.55
2022-08-16T17:35:40.586Z,4.97
2022-08-16T17:38:11.251Z,4.97
2022-08-16T17:40:55.876Z,5.50
2022-08-16T17:43:33.621Z,4.65
2022-08-16T17:46:51.244Z,4.45
2022-08-16T17:49:25.616Z,4.60
2022-08-16T17:51:53.744Z,5.45
2022-08-16T17:54:30.911Z,5.03
2022-08-16T17:57:00.862Z,4.65
2022-08-16T17:59:29.562Z,5.10
2022-08-16T18:01:57.834Z,4.88
2022-08-16T18:04:43.614Z,5.32
2022-08-16T18:07:13.277Z,6.72
2022-08-16T18:09:40.887Z,5.65
2022-08-16T18:12:44.759Z,5.85
2022-08-16T18:15:12.349Z,5.30
2022-08-16T18:17:39.712Z,5.05
2022-08-16T18:20:29.353Z,9.65
2022-08-16T18:23:15.719Z,5.05
2022-08-16T18:25:48.946Z,8.70
2022-08-16T18:28:17.937Z,5.85
2022-08-16T18:30:50.918Z,6.30
2022-08-16T18:33:21.169Z,6.50
2022-08-16T18:35:54.311Z,6.07
2022-08-16T18:38:24.339Z,5.93
2022-08-16T18:40:51.479Z,6.15
2022-08-16T18:43:54.721Z,5.93
2022-08-16T18:46:09.360Z,6.18
2022-08-16T18:48:36.430Z,6.00
2022-08-16T18:51:09.128Z,6.85
2022-08-16T18:53:38.662Z,7.45
2022-08-16T18:56:05.988Z,7.80
2022-08-16T18:58:34.049Z,7.82
2022-08-16T19:01:01.824Z,7.47
2022-08-16T19:03:33.048Z,8.35
2022-08-16T19:06:11.149Z,8.48
2022-08-16T19:08:41.909Z,7.93
2022-08-16T19:11:23.340Z,9.45
2022-08-16T19:13:50.648Z,8.57
2022-08-16T19:16:17.882Z,7.75
2022-08-16T19:18:49.475Z,6.93
2022-08-16T19:21:16.669Z,7.05
2022-08-16T19:23:45.094Z,6.88
2022-08-16T19:26:24.645Z,7.18
2022-08-16T19:28:59.734Z,7.00
2022-08-16T19:31:33.131Z,7.90
2022-08-16T19:34:03.811Z,6.75
2022-08-16T19:36:38.222Z,6.97
2022-08-16T19:39:13.709Z,6.80
2022-08-16T19:41:51.934Z,6.13
2022-08-16T19:44:22.349Z,6.82
2022-08-16T19:46:49.968Z,6.90
2022-08-16T19:49:17.330Z,7.50
2022-08-16T19:51:48.171Z,7.55
2022-08-16T19:54:16.232Z,7.35
2022-08-16T19:56:43.663Z,7.15
2022-08-16T19:59:19.998Z,7.15
2022-08-16T20:01:51.743Z,7.22
2022-08-16T20:04:21.483Z,6.60
2022-08-16T20:06:48.628Z,6.93
2022-08-16T20:09:16.224Z,6.70
2022-08-16T20:11:47.415Z,6.63
2022-08-16T20:14:24.717Z,6.95
2022-08-16T20:16:58.856Z,6.45
2022-08-16T20:19:28.546Z,6.68
2022-08-16T20:22:01.628Z,6.80
2022-08-16T20:24:34.703Z,6.32
2022-08-16T20:27:06.438Z,6.05
2022-08-16T20:29:34.538Z,7.15
2022-08-16T20:32:03.263Z,6.63
2022-08-16T20:34:30.935Z,6.25
2022-08-16T20:36:57.917Z,6.63
2022-08-16T20:39:25.064Z,6.55
2022-08-16T20:41:52.295Z,6.32
2022-08-16T20:44:22.606Z,6.50
2022-08-16T20:46:50.156Z,7.00
2022-08-16T20:49:17.205Z,7.10
2022-08-16T20:51:46.689Z,6.47
2022-08-16T20:54:17.051Z,6.75
2022-08-16T20:56:44.031Z,6.95
2022-08-16T20:59:11.066Z,6.60
2022-08-16T21:01:46.662Z,7.07
2022-08-16T21:04:22.636Z,7.03
2022-08-16T21:06:54.353Z,7.53
2022-08-16T21:09:33.515Z,7.60
2022-08-16T21:12:10.056Z,7.40
2022-08-16T21:14:42.882Z,7.10
2022-08-16T21:17:13.000Z,7.28
2022-08-16T21:19:40.390Z,7.60
2022-08-16T21:22:15.128Z,7.60
2022-08-16T21:24:44.244Z,7.25
2022-08-16T21:27:18.041Z,6.97
2022-08-16T21:29:46.044Z,6.68
2022-08-16T21:32:35.115Z,6.85
2022-08-16T21:35:11.688Z,5.78
2022-08-16T21:37:40.017Z,6.40
2022-08-16T21:40:10.113Z,6.43
2022-08-16T21:42:39.743Z,7.15
2022-08-16T21:45:09.018Z,6.60
2022-08-16T21:47:36.058Z,6.70
2022-08-16T21:50:03.489Z,6.90
2022-08-16T21:52:30.552Z,5.95
2022-08-16T21:54:57.840Z,6.40
2022-08-16T21:57:25.194Z,6.60
2022-08-16T21:59:54.945Z,6.35
2022-08-16T22:02:25.909Z,6.57
2022-08-16T22:05:05.324Z,6.13
2022-08-16T22:07:32.409Z,5.90
2022-08-16T22:09:59.368Z,6.13
2022-08-16T22:12:47.147Z,6.60
2022-08-16T22:15:15.262Z,6.07
2022-08-16T22:17:42.706Z,6.10
2022-08-16T22:20:11.202Z,5.93
2022-08-16T22:22:38.333Z,5.75
2022-08-16T22:25:06.099Z,6.60
2022-08-16T22:27:33.248Z,5.30
2022-08-16T22:30:00.310Z,6.45
2022-08-16T22:32:27.920Z,5.85
2022-08-16T22:34:55.728Z,6.20
2022-08-16T22:37:27.924Z,6.28
2022-08-16T22:39:55.003Z,6.20
2022-08-16T22:42:23.118Z,6.25
2022-08-16T22:44:50.145Z,5.85
2022-08-16T22:47:17.190Z,5.90
2022-08-16T22:49:45.198Z,5.70
2022-08-16T22:52:12.203Z,5.95
2022-08-16T22:54:48.217Z,6.25
2022-08-16T22:57:16.201Z,6.15
2022-08-16T22:59:43.209Z,6.20
2022-08-16T23:02:10.566Z,6.38
2022-08-16T23:04:37.659Z,6.25
2022-08-16T23:07:05.814Z,6.53
2022-08-16T23:09:32.834Z,6.25
2022-08-16T23:12:07.254Z,6.90
2022-08-16T23:14:34.372Z,6.80
2022-08-16T23:17:01.430Z,6.32
2022-08-16T23:19:29.444Z,6.72
2022-08-16T23:21:57.401Z,7.10
2022-08-16T23:24:27.581Z,6.75
2022-08-16T23:26:54.610Z,6.80
2022-08-16T23:29:26.596Z,7.15
2022-08-16T23:32:08.285Z,6.85
2022-08-16T23:34:35.292Z,6.68
2022-08-16T23:37:02.468Z,6.90
2022-08-16T23:39:29.944Z,7.75
2022-08-16T23:41:57.255Z,7.85
2022-08-16T23:44:57.430Z,7.57
2022-08-16T23:47:12.320Z,7.80
2022-08-16T23:50:00.633Z,7.18
2022-08-16T23:52:42.320Z,7.03
2022-08-16T23:55:17.675Z,7.93
2022-08-16T23:57:46.269Z,7.65
